Terminal Aerodrome Forecast
Issued by NWS Memphis, TN

Home | Current Version | Previous Version | Text Only | Print | Product List | Glossary On
Versions: 1 2 3 4 5 6 7 8 9 10 11 12 13 14 15 16 17 18
000
FTUS44 KMEG 282206 AAA
TAFMKL
TAF AMD
KMKL 282206Z 2822/2918 18005KT P6SM VCTS FEW050CB BKN100
      TEMPO 2823/2824 VRB10G25KT 3SM TSRA OVC045CB
     FM290100 VRB02KT P6SM FEW100 SCT250
      TEMPO 2910/2912 5SM BR
     FM291200 24006KT P6SM OVC035=

USA.gov is the U.S. government's official web portal to all federal, state and local government web resources and services.